Creswell, Oregon
Current Conditions -  °F | °C
As of 10:54 PM on Saturday 20 Dec 2014 (Local Time) from KEUG Reporting Station
Light Rain Light Rain  
Wind Chill: 57°   Ceiling: 3500
Heat Index: 57°   Visibility: 10mi
Dew Point: 55°   Wind: 13mph
Humidity: 93%   Direction: 190°S
Pressure: 29.87"   Gusts: NA
Location:  43.92°N, 123.02°W
Report Text: KEUG 210654Z 19011KT 10SM -RA SCT016 BKN035 OVC070 14/13 A2987 RMK AO2 SLP115 P0005 T01390128
Loading
Personal Weather Stations






























Interactive Weather Map New forecast layout! Learn more

10-Day Weather Forecast

Advertisements
Track Severe Weather on mobile